createdAt,value
2023-03-07T00:02:01.877Z,1.86
2023-03-07T00:04:28.883Z,1.88
2023-03-07T00:06:56.705Z,1.54
2023-03-07T00:09:23.724Z,1.77
2023-03-07T00:11:50.781Z,1.87
2023-03-07T00:14:17.854Z,1.82
2023-03-07T00:16:45.134Z,1.89
2023-03-07T00:19:12.151Z,1.87
2023-03-07T00:21:39.225Z,2.07
2023-03-07T00:24:06.599Z,2.06
2023-03-07T00:26:39.320Z,1.84
2023-03-07T00:29:08.127Z,1.80
2023-03-07T00:31:36.032Z,1.94
2023-03-07T00:34:03.759Z,1.75
2023-03-07T00:36:31.071Z,1.92
2023-03-07T00:38:58.973Z,1.66
2023-03-07T00:41:27.895Z,1.76
2023-03-07T00:43:55.894Z,1.80
2023-03-07T00:46:24.604Z,1.79
2023-03-07T00:48:52.117Z,1.80
2023-03-07T00:51:20.265Z,1.65
2023-03-07T00:53:47.376Z,1.93
2023-03-07T00:56:23.240Z,1.77
2023-03-07T00:58:51.413Z,1.85
2023-03-07T01:01:24.865Z,1.73
2023-03-07T01:03:56.087Z,1.69
2023-03-07T01:06:27.122Z,1.86
2023-03-07T01:08:58.554Z,1.67
2023-03-07T01:11:28.184Z,1.89
2023-03-07T01:13:57.465Z,1.73
2023-03-07T01:16:27.747Z,1.67
2023-03-07T01:18:57.773Z,1.77
2023-03-07T01:21:28.394Z,1.87
2023-03-07T01:23:56.855Z,1.76
2023-03-07T01:26:27.799Z,1.82
2023-03-07T01:28:57.894Z,1.63
2023-03-07T01:31:26.112Z,1.68
2023-03-07T01:33:54.040Z,1.63
2023-03-07T01:36:30.514Z,1.62
2023-03-07T01:39:07.200Z,1.81
2023-03-07T01:41:38.040Z,1.75
2023-03-07T01:44:22.916Z,1.78
2023-03-07T01:46:55.424Z,1.84
2023-03-07T01:49:33.787Z,1.71
2023-03-07T01:52:13.333Z,1.80
2023-03-07T01:54:52.486Z,1.71
2023-03-07T01:57:29.696Z,1.78
2023-03-07T02:00:00.044Z,1.80
2023-03-07T02:02:29.236Z,1.88
2023-03-07T02:05:22.074Z,1.79
2023-03-07T02:07:49.996Z,1.87
2023-03-07T02:10:22.577Z,1.94
2023-03-07T02:12:51.745Z,1.89
2023-03-07T02:15:19.027Z,1.87
2023-03-07T02:17:46.517Z,1.61
2023-03-07T02:20:47.314Z,1.79
2023-03-07T02:23:34.893Z,1.83
2023-03-07T02:26:35.207Z,1.84
2023-03-07T02:29:02.811Z,1.91
2023-03-07T02:31:31.501Z,1.73
2023-03-07T02:33:58.953Z,1.80
2023-03-07T02:36:32.332Z,1.90
2023-03-07T02:39:09.451Z,1.77
2023-03-07T02:41:38.162Z,1.70
2023-03-07T02:44:11.768Z,1.81
2023-03-07T02:46:39.174Z,1.59
2023-03-07T02:49:06.208Z,1.79
2023-03-07T02:51:33.739Z,1.79
2023-03-07T02:54:00.814Z,1.68
2023-03-07T02:56:27.884Z,1.62
2023-03-07T02:58:55.060Z,1.75
2023-03-07T03:01:22.449Z,1.75
2023-03-07T03:03:49.652Z,1.76
2023-03-07T03:06:16.659Z,1.68
2023-03-07T03:08:43.737Z,1.66
2023-03-07T03:11:10.742Z,1.76
2023-03-07T03:13:39.068Z,1.79
2023-03-07T03:16:07.315Z,1.86
2023-03-07T03:18:34.493Z,1.81
2023-03-07T03:21:07.462Z,1.68
2023-03-07T03:23:34.434Z,1.73
2023-03-07T03:26:07.464Z,1.77
2023-03-07T03:28:35.943Z,1.64
2023-03-07T03:31:05.908Z,1.55
2023-03-07T03:33:33.368Z,1.63
2023-03-07T03:36:07.259Z,1.52
2023-03-07T03:38:34.905Z,1.47
2023-03-07T03:41:11.859Z,1.72
2023-03-07T03:43:39.715Z,1.77
2023-03-07T03:46:06.968Z,1.67
2023-03-07T03:48:34.057Z,1.68
2023-03-07T03:51:05.478Z,1.77
2023-03-07T03:53:34.707Z,1.66
2023-03-07T03:56:12.565Z,1.69
2023-03-07T03:58:40.793Z,1.71
2023-03-07T04:01:11.140Z,1.38
2023-03-07T04:03:44.100Z,1.80
2023-03-07T04:06:13.802Z,1.80
2023-03-07T04:08:41.493Z,1.79
2023-03-07T04:11:08.521Z,1.68
2023-03-07T04:13:36.472Z,1.84
2023-03-07T04:16:04.598Z,1.79
2023-03-07T04:18:32.100Z,1.67
2023-03-07T04:20:59.270Z,1.82
2023-03-07T04:23:27.821Z,1.80
2023-03-07T04:25:59.981Z,1.73
2023-03-07T04:28:46.294Z,1.77
2023-03-07T04:31:23.182Z,1.76
2023-03-07T04:33:51.737Z,1.77
2023-03-07T04:36:19.713Z,1.79
2023-03-07T04:38:48.508Z,1.78
2023-03-07T04:41:21.753Z,1.84
2023-03-07T04:43:51.620Z,1.78
2023-03-07T04:46:19.475Z,1.54
2023-03-07T04:48:47.084Z,1.78
2023-03-07T04:51:14.285Z,1.80
2023-03-07T04:53:42.017Z,1.68
2023-03-07T04:56:10.273Z,1.69
2023-03-07T04:58:38.385Z,1.77
2023-03-07T05:01:05.987Z,1.89
2023-03-07T05:03:34.071Z,2.00
2023-03-07T05:06:10.550Z,1.83
2023-03-07T05:08:37.780Z,1.76
2023-03-07T05:11:05.123Z,1.65
2023-03-07T05:13:33.478Z,1.75
2023-03-07T05:16:00.966Z,2.03
2023-03-07T05:18:29.511Z,2.00
2023-03-07T05:20:58.429Z,1.89
2023-03-07T05:23:25.711Z,1.98
2023-03-07T05:25:54.197Z,1.96
2023-03-07T05:28:21.423Z,2.00
2023-03-07T05:30:48.657Z,2.03
2023-03-07T05:33:15.813Z,2.09
2023-03-07T05:35:43.471Z,2.14
2023-03-07T05:38:12.346Z,2.15
2023-03-07T05:40:40.153Z,2.12
2023-03-07T05:43:08.338Z,2.09
2023-03-07T05:45:35.569Z,2.21
2023-03-07T05:48:02.610Z,2.20
2023-03-07T05:50:31.167Z,2.10
2023-03-07T05:52:59.221Z,2.23
2023-03-07T05:55:29.844Z,2.03
2023-03-07T05:57:56.951Z,2.23
2023-03-07T06:00:24.161Z,2.10
2023-03-07T06:03:02.730Z,2.08
2023-03-07T06:05:30.736Z,2.06
2023-03-07T06:07:58.095Z,2.11
2023-03-07T06:10:25.744Z,2.08
2023-03-07T06:12:54.056Z,2.23
2023-03-07T06:15:24.269Z,2.26
2023-03-07T06:17:54.920Z,2.37
2023-03-07T06:20:22.046Z,2.05
2023-03-07T06:22:49.700Z,2.44
2023-03-07T06:25:16.988Z,2.43
2023-03-07T06:27:44.402Z,2.33
2023-03-07T06:30:12.613Z,2.23
2023-03-07T06:32:40.534Z,2.30
2023-03-07T06:35:08.648Z,2.33
2023-03-07T06:37:36.417Z,2.21
2023-03-07T06:40:06.306Z,2.28
2023-03-07T06:42:35.584Z,2.16
2023-03-07T06:45:03.461Z,2.01
2023-03-07T06:47:30.664Z,1.71
2023-03-07T06:49:57.720Z,2.26
2023-03-07T06:52:24.806Z,2.30
2023-03-07T06:54:52.420Z,2.30
2023-03-07T06:57:19.506Z,2.19
2023-03-07T06:59:46.550Z,2.21
2023-03-07T07:02:15.244Z,2.23
2023-03-07T07:04:42.318Z,2.27
2023-03-07T07:07:09.357Z,2.24
2023-03-07T07:09:36.630Z,2.16
2023-03-07T07:12:05.860Z,2.38
2023-03-07T07:14:34.641Z,2.53
2023-03-07T07:17:02.208Z,2.46
2023-03-07T07:19:29.508Z,2.61
2023-03-07T07:21:58.267Z,2.78
2023-03-07T07:24:25.484Z,2.77
2023-03-07T07:26:55.854Z,2.80
2023-03-07T07:29:23.351Z,2.84
2023-03-07T07:31:51.749Z,2.83
2023-03-07T07:34:19.998Z,2.77
2023-03-07T07:36:47.896Z,2.85
2023-03-07T07:39:15.989Z,2.72
2023-03-07T07:41:45.269Z,2.73
2023-03-07T07:44:13.730Z,2.90
2023-03-07T07:46:52.789Z,2.70
2023-03-07T07:49:19.775Z,3.00
2023-03-07T07:51:46.956Z,3.05
2023-03-07T07:54:14.598Z,2.94
2023-03-07T07:56:41.623Z,2.89
2023-03-07T07:59:08.721Z,3.07
2023-03-07T08:01:35.868Z,3.22
2023-03-07T08:04:02.926Z,3.22
2023-03-07T08:06:30.761Z,3.37
2023-03-07T08:08:59.948Z,3.17
2023-03-07T08:11:27.171Z,3.22
2023-03-07T08:13:54.258Z,3.31
2023-03-07T08:16:22.727Z,3.34
2023-03-07T08:18:55.867Z,3.25
2023-03-07T08:21:24.785Z,3.31
2023-03-07T08:23:53.975Z,3.55
2023-03-07T08:26:21.408Z,3.49
2023-03-07T08:28:48.467Z,3.54
2023-03-07T08:31:23.354Z,3.47
2023-03-07T08:33:51.158Z,3.39
2023-03-07T08:36:18.361Z,3.35
2023-03-07T08:38:51.482Z,3.29
2023-03-07T08:41:20.092Z,3.35
2023-03-07T08:43:47.477Z,3.38
2023-03-07T08:46:14.703Z,3.31
2023-03-07T08:48:41.883Z,2.98
2023-03-07T08:51:11.804Z,3.39
2023-03-07T08:53:39.061Z,3.55
2023-03-07T08:56:07.756Z,3.58
2023-03-07T08:58:35.065Z,3.22
2023-03-07T09:01:03.649Z,3.15
2023-03-07T09:03:30.819Z,3.47
2023-03-07T09:05:57.912Z,3.53
2023-03-07T09:08:24.948Z,3.57
2023-03-07T09:10:52.085Z,3.41
2023-03-07T09:13:19.168Z,3.52
2023-03-07T09:15:46.164Z,3.66
2023-03-07T09:18:13.245Z,3.70
2023-03-07T09:20:40.596Z,3.76
2023-03-07T09:23:08.337Z,3.93
2023-03-07T09:25:36.908Z,3.99
2023-03-07T09:28:04.222Z,3.99
2023-03-07T09:30:31.225Z,3.94
2023-03-07T09:32:58.528Z,4.06
2023-03-07T09:35:25.807Z,4.01
2023-03-07T09:37:52.857Z,3.88
2023-03-07T09:40:23.752Z,3.77
2023-03-07T09:43:16.421Z,3.71
2023-03-07T09:46:16.712Z,3.68
2023-03-07T09:48:56.826Z,3.77
2023-03-07T09:51:40.787Z,3.80
2023-03-07T09:54:20.550Z,3.80
2023-03-07T09:56:51.796Z,3.85
2023-03-07T09:59:41.758Z,3.90
2023-03-07T10:02:29.652Z,3.81
2023-03-07T10:05:25.212Z,3.82
2023-03-07T10:07:53.219Z,3.81
2023-03-07T10:10:39.721Z,3.88
2023-03-07T10:13:21.202Z,4.01
2023-03-07T10:15:57.793Z,3.92
2023-03-07T10:18:48.433Z,3.97
2023-03-07T10:21:49.525Z,4.23
2023-03-07T10:24:43.445Z,3.99
2023-03-07T10:27:13.107Z,4.11
2023-03-07T10:29:49.210Z,4.20
2023-03-07T10:32:37.394Z,4.33
2023-03-07T10:35:22.579Z,4.35
2023-03-07T10:38:26.965Z,4.47
2023-03-07T10:41:01.308Z,4.57
2023-03-07T10:43:32.066Z,4.65
2023-03-07T10:46:22.354Z,4.74
2023-03-07T10:49:08.772Z,4.71
2023-03-07T10:51:56.055Z,4.78
2023-03-07T10:54:35.301Z,4.61
2023-03-07T10:57:05.462Z,4.50
2023-03-07T10:59:33.035Z,4.55
2023-03-07T11:02:02.489Z,4.80
2023-03-07T11:04:43.364Z,4.53
2023-03-07T11:07:27.881Z,4.66
2023-03-07T11:09:57.089Z,4.64
2023-03-07T11:12:26.655Z,4.39
2023-03-07T11:15:09.625Z,4.65
2023-03-07T11:17:44.943Z,4.60
2023-03-07T11:20:30.753Z,4.71
2023-03-07T11:23:30.559Z,4.95
2023-03-07T11:26:21.595Z,4.88
2023-03-07T11:29:13.066Z,4.65
2023-03-07T11:31:47.588Z,4.75
2023-03-07T11:34:36.655Z,3.74
2023-03-07T11:37:34.633Z,4.55
2023-03-07T11:40:43.101Z,4.56
2023-03-07T11:43:10.088Z,4.65
2023-03-07T11:45:49.659Z,4.67
2023-03-07T11:48:51.791Z,4.84
2023-03-07T11:51:37.111Z,4.75
2023-03-07T11:54:22.555Z,4.84
2023-03-07T11:56:59.842Z,4.75
2023-03-07T11:59:44.125Z,4.79
2023-03-07T12:02:40.284Z,5.08
2023-03-07T12:05:36.477Z,4.78
2023-03-07T12:08:18.659Z,5.08
2023-03-07T12:11:19.587Z,4.98
2023-03-07T12:14:07.861Z,5.03
2023-03-07T12:16:45.910Z,4.99
2023-03-07T12:19:27.964Z,5.19
2023-03-07T12:22:33.665Z,5.15
2023-03-07T12:25:24.715Z,5.01
2023-03-07T12:28:04.967Z,5.12
2023-03-07T12:31:07.218Z,5.22
2023-03-07T12:33:58.620Z,5.08
2023-03-07T12:36:43.602Z,4.96
2023-03-07T12:39:20.843Z,5.09
2023-03-07T12:42:25.330Z,5.03
2023-03-07T12:44:58.696Z,5.03
2023-03-07T12:47:50.325Z,5.12
2023-03-07T12:50:28.778Z,5.03
2023-03-07T12:53:16.261Z,4.88
2023-03-07T12:55:48.247Z,5.04
2023-03-07T12:58:25.067Z,4.94
2023-03-07T13:00:59.373Z,4.72
2023-03-07T13:03:53.728Z,5.14
2023-03-07T13:06:23.907Z,5.00
2023-03-07T13:08:57.891Z,5.00
2023-03-07T13:11:28.261Z,5.08
2023-03-07T13:14:03.148Z,5.12
2023-03-07T13:16:42.389Z,5.06
2023-03-07T13:19:34.453Z,5.17
2023-03-07T13:22:16.809Z,4.95
2023-03-07T13:24:45.402Z,5.23
2023-03-07T13:27:18.444Z,5.32
2023-03-07T13:30:08.296Z,5.37
2023-03-07T13:32:50.622Z,5.31
2023-03-07T13:35:33.319Z,5.29
2023-03-07T13:38:03.631Z,5.31
2023-03-07T13:40:33.392Z,5.30
2023-03-07T13:43:02.049Z,5.22
2023-03-07T13:45:38.994Z,5.11
2023-03-07T13:48:12.494Z,5.09
2023-03-07T13:51:00.021Z,5.05
2023-03-07T13:53:48.142Z,5.10
2023-03-07T13:56:15.222Z,4.97
2023-03-07T13:59:01.556Z,4.85
2023-03-07T14:01:46.683Z,4.95
2023-03-07T14:04:38.946Z,4.83
2023-03-07T14:07:21.620Z,4.90
2023-03-07T14:09:55.617Z,4.92
2023-03-07T14:12:41.429Z,4.94
2023-03-07T14:15:42.854Z,4.99
2023-03-07T14:18:47.424Z,4.91
2023-03-07T14:21:43.790Z,4.99
2023-03-07T14:24:31.374Z,5.00
2023-03-07T14:27:03.354Z,4.97
2023-03-07T14:29:30.922Z,4.94
2023-03-07T14:32:00.712Z,5.02
2023-03-07T14:34:29.668Z,4.82
2023-03-07T14:36:59.985Z,4.94
2023-03-07T14:39:59.245Z,4.96
2023-03-07T14:42:49.460Z,4.80
2023-03-07T14:45:35.920Z,4.97
2023-03-07T14:48:15.011Z,4.86
2023-03-07T14:50:44.172Z,4.83
2023-03-07T14:53:19.054Z,4.75
2023-03-07T14:55:48.948Z,4.41
2023-03-07T14:58:29.167Z,4.84
2023-03-07T15:01:01.132Z,4.82
2023-03-07T15:03:29.210Z,4.66
2023-03-07T15:06:01.598Z,4.71
2023-03-07T15:08:35.127Z,4.61
2023-03-07T15:11:16.591Z,4.01
2023-03-07T15:13:52.142Z,3.84
2023-03-07T15:16:44.655Z,4.29
2023-03-07T15:19:14.721Z,4.15
2023-03-07T15:21:48.210Z,4.32
2023-03-07T15:24:26.101Z,4.25
2023-03-07T15:26:55.535Z,4.19
2023-03-07T15:29:25.644Z,4.22
2023-03-07T15:32:06.427Z,4.05
2023-03-07T15:34:35.780Z,4.13
2023-03-07T15:37:22.845Z,4.05
2023-03-07T15:40:01.300Z,4.11
2023-03-07T15:42:29.478Z,4.07
2023-03-07T15:44:59.119Z,3.85
2023-03-07T15:47:28.608Z,3.72
2023-03-07T15:50:03.476Z,3.60
2023-03-07T15:52:39.710Z,3.49
2023-03-07T15:55:18.034Z,3.44
2023-03-07T15:57:57.155Z,3.64
2023-03-07T16:00:29.738Z,3.55
2023-03-07T16:03:16.689Z,3.44
2023-03-07T16:05:43.930Z,3.10
2023-03-07T16:08:16.458Z,3.03
2023-03-07T16:10:48.969Z,3.10
2023-03-07T16:13:18.652Z,3.01
2023-03-07T16:15:45.809Z,3.05
2023-03-07T16:18:24.303Z,2.82
2023-03-07T16:20:51.481Z,2.91
2023-03-07T16:23:18.482Z,2.76
2023-03-07T16:25:45.610Z,2.75
2023-03-07T16:28:12.876Z,2.61
2023-03-07T16:30:44.016Z,2.49
2023-03-07T16:33:13.090Z,2.41
2023-03-07T16:35:40.966Z,2.36
2023-03-07T16:38:08.618Z,2.23
2023-03-07T16:40:41.375Z,2.26
2023-03-07T16:43:32.657Z,2.18
2023-03-07T16:46:11.318Z,2.18
2023-03-07T16:48:38.374Z,2.20
2023-03-07T16:51:05.951Z,2.23
2023-03-07T16:53:33.212Z,2.12
2023-03-07T16:56:00.361Z,2.08
2023-03-07T16:58:33.481Z,2.07
2023-03-07T17:05:36.396Z,2.08
2023-03-07T17:08:03.617Z,1.99
2023-03-07T17:10:30.806Z,2.03
2023-03-07T17:13:00.187Z,1.84
2023-03-07T17:15:30.945Z,2.01
2023-03-07T17:17:59.478Z,2.02
2023-03-07T17:20:27.330Z,2.00
2023-03-07T17:22:54.754Z,2.00
2023-03-07T17:25:22.638Z,1.93
2023-03-07T17:27:54.383Z,1.89
2023-03-07T17:30:24.100Z,1.94
2023-03-07T17:32:51.393Z,2.16
2023-03-07T17:35:18.960Z,1.86
2023-03-07T17:37:47.907Z,1.87
2023-03-07T17:40:15.263Z,1.87
2023-03-07T17:42:44.173Z,1.90
2023-03-07T17:45:13.798Z,1.91
2023-03-07T17:47:42.223Z,2.04
2023-03-07T17:50:10.613Z,1.91
2023-03-07T17:52:37.653Z,1.90
2023-03-07T17:55:09.578Z,1.88
2023-03-07T17:57:36.888Z,1.83
2023-03-07T18:00:13.053Z,1.80
2023-03-07T18:02:43.601Z,1.77
2023-03-07T18:05:13.017Z,1.76
2023-03-07T18:07:41.291Z,1.77
2023-03-07T18:10:10.822Z,1.76
2023-03-07T18:12:39.247Z,1.73
2023-03-07T18:15:11.743Z,1.73
2023-03-07T18:17:47.715Z,1.69
2023-03-07T18:20:21.576Z,1.65
2023-03-07T18:22:49.144Z,1.67
2023-03-07T18:25:17.471Z,1.49
2023-03-07T18:27:45.013Z,1.60
2023-03-07T18:34:00.795Z,1.54
2023-03-07T18:36:27.812Z,1.64
2023-03-07T18:38:54.796Z,1.59
2023-03-07T18:41:23.955Z,1.58
2023-03-07T18:43:53.230Z,1.52
2023-03-07T18:46:22.446Z,1.58
2023-03-07T18:48:50.217Z,1.69
2023-03-07T18:51:24.713Z,1.67
2023-03-07T18:53:56.586Z,1.59
2023-03-07T18:56:24.607Z,1.44
2023-03-07T18:58:57.090Z,1.72
2023-03-07T19:01:51.327Z,1.12
2023-03-07T19:04:18.696Z,1.88
2023-03-07T19:06:47.411Z,1.43
2023-03-07T19:09:16.902Z,1.86
2023-03-07T19:11:44.910Z,1.65
2023-03-07T19:14:12.668Z,1.75
2023-03-07T19:16:40.304Z,1.73
2023-03-07T19:19:07.350Z,1.69
2023-03-07T19:21:34.498Z,1.74
2023-03-07T19:24:04.922Z,1.83
2023-03-07T19:26:32.023Z,1.79
2023-03-07T19:28:59.078Z,1.77
2023-03-07T19:31:31.194Z,1.72
2023-03-07T19:33:58.465Z,1.70
2023-03-07T19:36:27.798Z,1.71
2023-03-07T19:38:57.589Z,1.71
2023-03-07T19:41:26.559Z,1.60
2023-03-07T19:43:55.405Z,1.64
2023-03-07T19:46:23.112Z,1.77
2023-03-07T19:48:50.226Z,1.71
2023-03-07T19:51:22.564Z,1.68
2023-03-07T19:53:50.386Z,1.80
2023-03-07T19:56:20.685Z,1.70
2023-03-07T19:58:47.932Z,1.51
2023-03-07T20:01:19.932Z,1.65
2023-03-07T20:03:47.700Z,1.64
2023-03-07T20:06:19.753Z,1.56
2023-03-07T20:08:48.316Z,1.62
2023-03-07T20:11:32.978Z,1.51
2023-03-07T20:14:02.223Z,1.54
2023-03-07T20:16:29.712Z,1.53
2023-03-07T20:18:59.226Z,1.61
2023-03-07T20:21:28.493Z,1.65
2023-03-07T20:23:59.585Z,1.63
2023-03-07T20:47:03.398Z,1.54
2023-03-07T20:49:30.342Z,1.22
2023-03-07T20:51:57.396Z,1.70
2023-03-07T20:54:24.668Z,1.61
2023-03-07T20:56:52.025Z,1.30
2023-03-07T20:59:19.251Z,1.45
2023-03-07T21:01:46.563Z,1.55
2023-03-07T21:04:17.415Z,1.56
2023-03-07T21:06:45.441Z,1.66
2023-03-07T21:09:14.197Z,1.65
2023-03-07T21:11:46.323Z,1.56
2023-03-07T21:14:14.932Z,1.47
2023-03-07T21:16:43.679Z,1.46
2023-03-07T21:19:11.796Z,1.52
2023-03-07T21:21:39.249Z,1.39
2023-03-07T21:24:06.750Z,1.63
2023-03-07T21:26:38.591Z,1.47
2023-03-07T21:29:05.702Z,1.46
2023-03-07T21:35:51.105Z,1.47
2023-03-07T21:38:18.198Z,1.43
2023-03-07T21:40:45.312Z,1.40
2023-03-07T21:43:12.725Z,1.49
2023-03-07T21:45:46.402Z,1.32
2023-03-07T21:48:13.805Z,1.49
2023-03-07T21:50:44.792Z,1.26
2023-03-07T21:53:12.354Z,1.30
2023-03-07T21:55:40.041Z,1.67
2023-03-07T21:58:07.127Z,1.41
2023-03-07T22:00:34.210Z,1.46
2023-03-07T22:03:01.274Z,1.44
2023-03-07T22:05:28.248Z,1.29
2023-03-07T22:07:55.234Z,1.43
2023-03-07T22:10:22.313Z,1.42
2023-03-07T22:12:49.301Z,1.36
2023-03-07T22:15:16.404Z,1.20
2023-03-07T22:17:43.402Z,1.42
2023-03-07T22:20:11.032Z,1.43
2023-03-07T22:22:38.121Z,1.41
2023-03-07T22:25:05.467Z,1.36
2023-03-07T22:27:32.571Z,1.34
2023-03-07T22:29:59.830Z,1.31
2023-03-07T22:32:26.894Z,1.35
2023-03-07T22:34:53.935Z,1.29
2023-03-07T22:37:20.963Z,1.30
2023-03-07T22:39:48.036Z,1.27
2023-03-07T22:42:15.153Z,1.23
2023-03-07T22:44:42.308Z,1.21
2023-03-07T22:47:09.533Z,1.17
2023-03-07T22:49:36.514Z,1.26
2023-03-07T22:52:03.716Z,1.23
2023-03-07T22:54:30.821Z,1.21
2023-03-07T22:56:57.814Z,1.27
2023-03-07T22:59:24.915Z,1.24
2023-03-07T23:01:52.164Z,1.11
2023-03-07T23:04:19.183Z,1.16
2023-03-07T23:06:46.220Z,1.16
2023-03-07T23:09:14.406Z,1.35
2023-03-07T23:11:43.686Z,1.26
2023-03-07T23:14:10.926Z,1.21
2023-03-07T23:16:39.241Z,1.17
2023-03-07T23:19:06.313Z,1.18
2023-03-07T23:21:34.104Z,1.16
2023-03-07T23:24:03.079Z,1.32
2023-03-07T23:26:32.969Z,1.25
2023-03-07T23:29:00.653Z,0.90
2023-03-07T23:31:33.019Z,1.21
2023-03-07T23:34:01.179Z,1.15
2023-03-07T23:36:30.661Z,1.14
2023-03-07T23:38:58.701Z,1.10
2023-03-07T23:41:29.871Z,0.98
2023-03-07T23:44:06.422Z,1.25
2023-03-07T23:46:33.770Z,1.04
2023-03-07T23:49:00.966Z,1.17
2023-03-07T23:51:28.087Z,1.09
2023-03-07T23:53:55.476Z,1.11
2023-03-07T23:56:22.760Z,1.21
2023-03-07T23:58:51.394Z,1.06
